createdAt,value
2018-06-11T00:01:04.337Z,34.10
2018-06-11T00:03:32.462Z,33.87
2018-06-11T00:06:00.611Z,32.73
2018-06-11T00:08:28.685Z,33.10
2018-06-11T00:10:56.802Z,32.93
2018-06-11T00:13:24.929Z,32.10
2018-06-11T00:15:53.032Z,33.63
2018-06-11T00:18:21.085Z,32.30
2018-06-11T00:20:49.225Z,32.97
2018-06-11T00:23:17.305Z,32.07
2018-06-11T00:25:45.497Z,31.37
2018-06-11T00:28:13.574Z,32.50
2018-06-11T00:30:41.653Z,31.97
2018-06-11T00:33:09.716Z,31.63
2018-06-11T00:35:37.878Z,30.87
2018-06-11T00:38:05.948Z,30.67
2018-06-11T00:40:34.051Z,31.07
2018-06-11T00:43:02.138Z,31.17
2018-06-11T00:45:30.226Z,29.83
2018-06-11T00:47:58.305Z,32.53
2018-06-11T00:50:27.273Z,32.10
2018-06-11T00:52:55.353Z,31.13
2018-06-11T00:55:23.434Z,31.23
2018-06-11T00:57:51.557Z,32.03
2018-06-11T01:00:19.665Z,31.73
2018-06-11T01:02:48.285Z,32.80
2018-06-11T01:05:16.361Z,31.17
2018-06-11T01:07:44.473Z,32.80
2018-06-11T01:10:12.551Z,31.87
2018-06-11T01:12:40.628Z,31.87
2018-06-11T01:15:08.719Z,32.77
2018-06-11T01:17:36.813Z,33.03
2018-06-11T01:20:04.938Z,34.03
2018-06-11T01:22:33.030Z,35.03
2018-06-11T01:25:01.113Z,35.37
2018-06-11T01:27:29.205Z,35.83
2018-06-11T01:29:57.347Z,34.10
2018-06-11T01:32:25.409Z,35.57
2018-06-11T01:34:53.485Z,32.30
2018-06-11T01:37:21.593Z,33.63
2018-06-11T01:39:49.703Z,35.83
2018-06-11T01:42:17.792Z,33.50
2018-06-11T01:44:45.873Z,35.03
2018-06-11T01:47:14.009Z,35.07
2018-06-11T01:49:42.152Z,34.33
2018-06-11T01:52:10.228Z,33.00
2018-06-11T01:54:38.370Z,34.17
2018-06-11T01:57:06.437Z,36.17
2018-06-11T01:59:34.525Z,35.53
2018-06-11T02:02:02.702Z,36.10
2018-06-11T02:04:30.796Z,33.20
2018-06-11T02:06:58.885Z,35.50
2018-06-11T02:09:27.051Z,33.20
2018-06-11T02:11:55.132Z,36.23
2018-06-11T02:14:23.209Z,35.37
2018-06-11T02:16:51.406Z,37.47
2018-06-11T02:19:19.608Z,35.23
2018-06-11T02:21:47.712Z,36.03
2018-06-11T02:24:15.775Z,34.53
2018-06-11T02:26:44.576Z,36.17
2018-06-11T02:29:12.784Z,36.00
2018-06-11T02:31:40.927Z,35.23
2018-06-11T02:34:09.007Z,36.63
2018-06-11T02:36:37.103Z,37.07
2018-06-11T02:39:07.368Z,35.90
2018-06-11T02:41:35.483Z,36.37
2018-06-11T02:44:03.632Z,35.57
2018-06-11T02:46:31.729Z,36.60
2018-06-11T02:49:00.253Z,38.67
2018-06-11T02:51:28.348Z,38.00
2018-06-11T02:53:56.439Z,38.37
2018-06-11T02:56:24.517Z,38.70
2018-06-11T02:58:52.725Z,39.33
2018-06-11T03:01:20.793Z,39.63
2018-06-11T03:03:48.876Z,37.70
2018-06-11T03:06:17.214Z,37.20
2018-06-11T03:08:45.318Z,39.53
2018-06-11T03:11:13.218Z,38.90
2018-06-11T03:13:41.973Z,37.17
2018-06-11T03:16:10.155Z,39.93
2018-06-11T03:18:38.236Z,38.93
2018-06-11T03:21:07.150Z,37.80
2018-06-11T03:23:35.213Z,40.87
2018-06-11T03:26:03.316Z,38.77
2018-06-11T03:28:31.420Z,39.13
2018-06-11T03:30:59.505Z,39.80
2018-06-11T03:33:27.610Z,40.03
2018-06-11T03:35:55.712Z,40.03
2018-06-11T03:38:24.294Z,38.03
2018-06-11T03:40:52.375Z,40.07
2018-06-11T03:43:20.442Z,37.27
2018-06-11T03:45:48.587Z,40.40
2018-06-11T03:48:16.655Z,39.17
2018-06-11T03:50:45.634Z,41.77
2018-06-11T03:53:13.730Z,40.77
2018-06-11T03:55:41.861Z,40.00
2018-06-11T03:58:10.709Z,41.13
2018-06-11T04:00:43.042Z,41.23
2018-06-11T04:03:11.083Z,47.73
2018-06-11T04:05:39.177Z,43.87
2018-06-11T04:08:07.253Z,41.87
2018-06-11T04:10:35.335Z,42.33
2018-06-11T04:13:03.536Z,39.60
2018-06-11T04:15:31.624Z,43.77
2018-06-11T04:17:59.701Z,41.33
2018-06-11T04:20:27.791Z,41.23
2018-06-11T04:22:55.937Z,39.67
2018-06-11T04:25:24.163Z,41.90
2018-06-11T04:27:52.245Z,45.20
2018-06-11T04:30:20.326Z,43.53
2018-06-11T04:32:48.469Z,43.00
2018-06-11T04:35:16.561Z,41.83
2018-06-11T04:37:44.665Z,41.23
2018-06-11T04:40:12.766Z,42.77
2018-06-11T04:42:40.950Z,41.30
2018-06-11T04:45:09.206Z,40.53
2018-06-11T04:47:37.305Z,43.43
2018-06-11T04:50:05.431Z,44.27
2018-06-11T04:55:08.175Z,45.47
2018-06-11T04:57:36.406Z,38.97
2018-06-11T05:00:04.924Z,40.23
2018-06-11T05:02:33.152Z,40.30
2018-06-11T05:05:01.305Z,37.20
2018-06-11T05:07:29.385Z,38.50
2018-06-11T05:09:57.651Z,37.00
2018-06-11T05:12:25.744Z,35.93
2018-06-11T05:14:53.830Z,35.50
2018-06-11T05:17:22.430Z,36.40
2018-06-11T05:19:50.525Z,33.33
2018-06-11T05:22:18.654Z,34.23
2018-06-11T05:24:46.748Z,34.77
2018-06-11T05:27:14.918Z,36.60
2018-06-11T05:29:43.142Z,36.13
2018-06-11T05:32:11.494Z,35.60
2018-06-11T05:34:39.673Z,35.40
2018-06-11T05:37:07.815Z,34.30
2018-06-11T05:39:35.937Z,34.20
2018-06-11T05:42:04.029Z,34.10
2018-06-11T05:44:32.122Z,35.83
2018-06-11T05:47:00.205Z,33.53
2018-06-11T05:49:28.293Z,31.70
2018-06-11T05:51:56.414Z,33.20
2018-06-11T05:54:24.978Z,31.70
2018-06-11T05:56:53.115Z,30.73
2018-06-11T05:59:21.249Z,30.53
2018-06-11T06:01:49.359Z,32.47
2018-06-11T06:04:17.450Z,32.33
2018-06-11T06:06:45.668Z,34.50
2018-06-11T06:09:13.765Z,33.00
2018-06-11T06:11:41.944Z,35.13
2018-06-11T06:14:10.062Z,34.67
2018-06-11T06:16:38.132Z,34.17
2018-06-11T06:19:06.048Z,33.00
2018-06-11T06:21:34.185Z,31.70
2018-06-11T06:24:02.309Z,32.17
2018-06-11T06:26:30.429Z,32.10
2018-06-11T06:28:58.540Z,31.40
2018-06-11T06:31:26.625Z,29.97
2018-06-11T06:33:54.719Z,30.97
2018-06-11T06:36:23.177Z,30.63
2018-06-11T06:38:51.573Z,31.10
2018-06-11T06:41:19.644Z,30.47
2018-06-11T06:43:47.745Z,29.67
2018-06-11T06:46:15.937Z,29.33
2018-06-11T06:48:44.129Z,27.93
2018-06-11T06:51:12.218Z,28.13
2018-06-11T06:53:40.345Z,27.23
2018-06-11T06:56:08.405Z,27.83
2018-06-11T06:58:36.559Z,26.20
2018-06-11T07:01:04.705Z,26.60
2018-06-11T07:03:32.861Z,27.63
2018-06-11T07:06:00.978Z,26.13
2018-06-11T07:08:29.120Z,28.10
2018-06-11T07:10:57.237Z,25.73
2018-06-11T07:13:25.299Z,27.57
2018-06-11T07:15:53.418Z,26.30
2018-06-11T07:18:21.598Z,26.20
2018-06-11T07:20:49.681Z,24.73
2018-06-11T07:23:17.890Z,24.87
2018-06-11T07:25:45.981Z,25.37
2018-06-11T07:28:14.186Z,24.93
2018-06-11T07:30:42.354Z,25.60
2018-06-11T07:33:10.483Z,24.40
2018-06-11T07:35:38.585Z,24.50
2018-06-11T07:38:06.718Z,25.33
2018-06-11T07:40:34.855Z,24.57
2018-06-11T07:43:02.989Z,24.03
2018-06-11T07:45:31.143Z,24.40
2018-06-11T07:47:59.330Z,25.00
2018-06-11T07:50:27.457Z,24.70
2018-06-11T07:52:55.658Z,25.70
2018-06-11T07:55:23.957Z,24.23
2018-06-11T07:57:52.184Z,23.17
2018-06-11T08:00:20.526Z,24.20
2018-06-11T08:02:48.940Z,24.03
2018-06-11T08:05:17.093Z,25.57
2018-06-11T08:07:45.579Z,24.23
2018-06-11T08:10:13.762Z,23.93
2018-06-11T08:12:41.884Z,23.70
2018-06-11T08:15:10.122Z,24.63
2018-06-11T08:17:38.298Z,24.83
2018-06-11T08:20:06.521Z,24.50
2018-06-11T08:22:34.642Z,31.47
2018-06-11T08:25:02.935Z,23.60
2018-06-11T08:27:31.179Z,22.40
2018-06-11T08:29:59.336Z,24.00
2018-06-11T08:32:27.461Z,22.00
2018-06-11T08:34:56.080Z,21.97
2018-06-11T08:37:24.237Z,23.07
2018-06-11T08:39:52.441Z,22.27
2018-06-11T08:42:20.678Z,23.43
2018-06-11T08:44:48.781Z,22.30
2018-06-11T08:47:16.881Z,22.50
2018-06-11T08:49:44.989Z,22.70
2018-06-11T08:52:13.190Z,22.70
2018-06-11T08:54:41.393Z,22.90
2018-06-11T08:57:09.654Z,22.20
2018-06-11T08:59:38.208Z,23.43
2018-06-11T09:02:07.192Z,23.27
2018-06-11T09:04:36.329Z,23.13
2018-06-11T09:07:04.502Z,23.53
2018-06-11T09:09:32.610Z,23.53
2018-06-11T09:12:00.789Z,25.40
2018-06-11T09:14:29.273Z,22.23
2018-06-11T09:16:57.422Z,22.57
2018-06-11T09:19:25.732Z,22.77
2018-06-11T09:21:53.906Z,21.83
2018-06-11T09:24:22.079Z,21.80
2018-06-11T09:26:50.619Z,22.50
2018-06-11T09:29:18.843Z,22.30
2018-06-11T09:31:47.075Z,22.20
2018-06-11T09:34:15.191Z,22.80
2018-06-11T09:36:43.277Z,23.03
2018-06-11T09:39:11.449Z,20.60
2018-06-11T09:41:39.638Z,21.30
2018-06-11T09:44:07.814Z,20.10
2018-06-11T09:46:36.105Z,20.93
2018-06-11T09:49:04.394Z,20.97
2018-06-11T09:51:32.551Z,21.07
2018-06-11T09:54:00.969Z,20.27
2018-06-11T09:56:29.673Z,19.87
2018-06-11T09:58:57.908Z,19.07
2018-06-11T10:01:26.234Z,17.70
2018-06-11T10:03:54.663Z,20.70
2018-06-11T10:06:23.173Z,20.10
2018-06-11T10:08:51.317Z,18.97
2018-06-11T10:11:19.388Z,20.20
2018-06-11T10:13:47.509Z,19.27
2018-06-11T10:16:15.590Z,19.27
2018-06-11T10:18:43.669Z,18.17
2018-06-11T10:21:12.443Z,18.77
2018-06-11T10:23:40.543Z,20.97
2018-06-11T10:26:08.752Z,18.93
2018-06-11T10:28:36.992Z,18.13
2018-06-11T10:31:05.081Z,17.67
2018-06-11T10:33:33.277Z,18.70
2018-06-11T10:36:01.514Z,18.23
2018-06-11T10:38:29.733Z,17.47
2018-06-11T10:40:57.881Z,15.97
2018-06-11T10:43:26.045Z,16.03
2018-06-11T10:45:54.230Z,15.10
2018-06-11T10:48:22.394Z,15.50
2018-06-11T10:50:50.552Z,16.00
2018-06-11T10:53:18.663Z,17.60
2018-06-11T10:55:46.796Z,20.40
2018-06-11T10:58:15.037Z,18.93
2018-06-11T11:00:43.190Z,17.87
2018-06-11T11:03:11.320Z,18.17
2018-06-11T11:05:39.407Z,18.83
2018-06-11T11:08:07.574Z,19.40
2018-06-11T11:10:35.818Z,17.37
2018-06-11T11:13:04.485Z,16.20
2018-06-11T11:15:32.596Z,15.90
2018-06-11T11:18:00.809Z,16.60
2018-06-11T11:20:29.082Z,17.03
2018-06-11T11:22:57.228Z,15.53
2018-06-11T11:25:25.481Z,16.27
2018-06-11T11:27:53.656Z,16.13
2018-06-11T11:30:21.909Z,15.27
2018-06-11T11:32:50.016Z,15.80
2018-06-11T11:35:18.102Z,16.10
2018-06-11T11:37:46.212Z,16.50
2018-06-11T11:40:14.319Z,15.63
2018-06-11T11:42:42.431Z,16.10
2018-06-11T11:45:10.522Z,13.53
2018-06-11T11:47:38.641Z,13.70
2018-06-11T11:50:06.840Z,13.33
2018-06-11T11:52:34.972Z,14.40
2018-06-11T11:55:03.166Z,13.73
2018-06-11T11:57:31.392Z,13.33
2018-06-11T12:00:00.078Z,14.27
2018-06-11T12:02:28.303Z,13.50
2018-06-11T12:04:56.515Z,14.90
2018-06-11T12:07:24.814Z,14.23
2018-06-11T12:09:52.962Z,14.97
2018-06-11T12:12:21.223Z,14.43
2018-06-11T12:14:49.313Z,15.10
2018-06-11T12:17:17.450Z,16.20
2018-06-11T12:19:45.688Z,15.23
2018-06-11T12:22:13.878Z,15.10
2018-06-11T12:24:41.991Z,14.90
2018-06-11T12:27:10.146Z,16.27
2018-06-11T12:29:38.242Z,13.70
2018-06-11T12:32:06.673Z,13.30
2018-06-11T12:34:34.841Z,14.27
2018-06-11T12:37:03.150Z,13.83
2018-06-11T12:39:31.468Z,13.17
2018-06-11T12:41:59.741Z,12.77
2018-06-11T12:44:27.845Z,13.17
2018-06-11T12:46:55.808Z,14.33
2018-06-11T12:49:23.892Z,14.20
2018-06-11T12:51:52.061Z,13.13
2018-06-11T12:54:20.153Z,13.23
2018-06-11T12:56:48.337Z,13.40
2018-06-11T12:59:16.410Z,14.00
2018-06-11T13:01:44.584Z,13.07
2018-06-11T13:04:12.858Z,12.30
2018-06-11T13:06:41.285Z,12.50
2018-06-11T13:09:09.493Z,12.57
2018-06-11T13:11:37.648Z,10.70
2018-06-11T13:14:05.961Z,11.37
2018-06-11T13:16:34.194Z,10.77
2018-06-11T13:19:02.403Z,10.33
2018-06-11T13:21:30.670Z,10.40
2018-06-11T13:23:59.017Z,12.50
2018-06-11T13:26:27.609Z,10.17
2018-06-11T13:28:55.749Z,10.70
2018-06-11T13:31:23.997Z,9.97
2018-06-11T13:33:52.125Z,10.17
2018-06-11T13:36:20.332Z,10.30
2018-06-11T13:38:48.441Z,9.67
2018-06-11T13:41:16.604Z,9.40
2018-06-11T13:43:44.741Z,8.10
2018-06-11T13:46:12.890Z,7.70
2018-06-11T13:48:41.010Z,8.63
2018-06-11T13:51:09.110Z,8.60
2018-06-11T13:53:37.182Z,8.90
2018-06-11T13:56:05.685Z,8.83
2018-06-11T13:58:33.937Z,8.47
2018-06-11T14:01:02.039Z,7.97
2018-06-11T14:03:30.137Z,8.97
2018-06-11T14:05:58.710Z,8.67
2018-06-11T14:08:26.849Z,8.10
2018-06-11T14:10:55.051Z,7.70
2018-06-11T14:13:23.267Z,7.83
2018-06-11T14:15:51.441Z,7.10
2018-06-11T14:18:19.680Z,7.63
2018-06-11T14:20:47.875Z,7.30
2018-06-11T14:23:16.168Z,6.97
2018-06-11T14:25:44.334Z,6.67
2018-06-11T14:28:12.441Z,7.10
2018-06-11T14:30:40.590Z,7.20
2018-06-11T14:33:08.719Z,7.67
2018-06-11T14:35:36.818Z,7.90
2018-06-11T14:38:05.140Z,7.27
2018-06-11T14:40:33.216Z,7.47
2018-06-11T14:43:01.339Z,6.70
2018-06-11T14:45:29.533Z,6.70
2018-06-11T14:47:57.728Z,6.20
2018-06-11T14:50:25.902Z,6.27
2018-06-11T14:52:54.680Z,6.90
2018-06-11T14:55:23.080Z,7.47
2018-06-11T14:57:51.230Z,8.00
2018-06-11T15:00:19.325Z,7.70
2018-06-11T15:02:47.435Z,6.37
2018-06-11T15:05:15.609Z,6.90
2018-06-11T15:07:43.878Z,7.43
2018-06-11T15:10:12.156Z,9.50
2018-06-11T15:12:40.515Z,7.90
2018-06-11T15:15:08.609Z,8.10
2018-06-11T15:17:36.770Z,8.17
2018-06-11T15:20:05.167Z,7.40
2018-06-11T15:22:33.360Z,8.07
2018-06-11T15:25:01.545Z,7.97
2018-06-11T15:27:30.702Z,7.70
2018-06-11T15:29:59.078Z,8.07
2018-06-11T15:32:27.522Z,8.30
2018-06-11T15:34:55.583Z,8.40
2018-06-11T15:37:24.510Z,7.77
2018-06-11T15:39:54.256Z,7.90
2018-06-11T15:42:22.636Z,7.83
2018-06-11T15:44:50.693Z,8.77
2018-06-11T15:47:18.903Z,8.37
2018-06-11T15:49:47.048Z,8.10
2018-06-11T15:52:15.238Z,8.13
2018-06-11T15:54:43.426Z,8.20
2018-06-11T15:57:11.530Z,8.73
2018-06-11T15:59:39.673Z,8.33
2018-06-11T16:02:07.824Z,8.07
2018-06-11T16:04:35.997Z,7.50
2018-06-11T16:07:04.124Z,7.37
2018-06-11T16:09:32.334Z,7.07
2018-06-11T16:12:00.558Z,6.77
2018-06-11T16:14:28.750Z,7.10
2018-06-11T16:16:57.188Z,7.20
2018-06-11T16:19:25.341Z,7.03
2018-06-11T16:21:53.495Z,7.73
2018-06-11T16:24:21.641Z,7.13
2018-06-11T16:26:49.765Z,7.50
2018-06-11T16:29:17.845Z,6.83
2018-06-11T16:31:45.913Z,7.40
2018-06-11T16:34:14.070Z,7.27
2018-06-11T16:36:42.409Z,7.53
2018-06-11T16:39:10.610Z,9.83
2018-06-11T16:41:38.829Z,7.40
2018-06-11T16:44:07.029Z,8.00
2018-06-11T16:46:35.221Z,8.07
2018-06-11T16:49:03.407Z,7.20
2018-06-11T16:51:31.710Z,7.50
2018-06-11T16:53:59.797Z,7.33
2018-06-11T16:56:28.021Z,7.57
2018-06-11T16:58:56.161Z,7.50
2018-06-11T17:01:24.306Z,7.23
2018-06-11T17:03:52.459Z,7.40
2018-06-11T17:06:20.688Z,7.30
2018-06-11T17:08:48.859Z,7.93
2018-06-11T17:11:17.107Z,7.17
2018-06-11T17:13:45.268Z,7.43
2018-06-11T17:16:13.545Z,7.67
2018-06-11T17:18:41.940Z,7.73
2018-06-11T17:21:10.338Z,7.40
2018-06-11T17:23:38.494Z,7.80
2018-06-11T17:26:06.670Z,7.93
2018-06-11T17:28:34.744Z,7.77
2018-06-11T17:31:02.848Z,7.97
2018-06-11T17:33:31.061Z,8.00
2018-06-11T17:35:59.673Z,7.37
2018-06-11T17:38:27.580Z,8.00
2018-06-11T17:40:55.890Z,7.60
2018-06-11T17:43:23.990Z,7.33
2018-06-11T17:45:52.296Z,7.67
2018-06-11T17:48:20.447Z,8.63
2018-06-11T17:50:48.541Z,9.90
2018-06-11T17:53:16.619Z,9.30
2018-06-11T17:55:44.772Z,7.90
2018-06-11T17:58:13.728Z,8.07
2018-06-11T18:00:41.840Z,8.00
2018-06-11T18:03:10.048Z,7.60
2018-06-11T18:05:38.450Z,7.83
2018-06-11T18:08:06.619Z,8.17
2018-06-11T18:10:34.762Z,7.57
2018-06-11T18:13:03.411Z,8.00
2018-06-11T18:15:31.858Z,8.30
2018-06-11T18:18:00.025Z,8.10
2018-06-11T18:20:28.253Z,7.90
2018-06-11T18:22:56.421Z,7.83
2018-06-11T18:25:24.697Z,8.57
2018-06-11T18:27:52.873Z,8.47
2018-06-11T18:30:21.303Z,8.80
2018-06-11T18:32:49.540Z,8.10
2018-06-11T18:35:17.707Z,8.20
2018-06-11T18:37:46.090Z,7.93
2018-06-11T18:40:14.275Z,7.37
2018-06-11T18:42:42.613Z,8.30
2018-06-11T18:45:10.898Z,9.77
2018-06-11T18:47:39.144Z,8.97
2018-06-11T18:50:07.498Z,8.30
2018-06-11T18:52:35.731Z,10.40
2018-06-11T18:55:03.979Z,9.67
2018-06-11T18:57:32.436Z,9.00
2018-06-11T19:00:00.615Z,7.70
2018-06-11T19:02:28.793Z,9.37
2018-06-11T19:04:57.017Z,8.37
2018-06-11T19:07:25.196Z,7.90
2018-06-11T19:09:53.447Z,7.80
2018-06-11T19:12:21.971Z,7.70
2018-06-11T19:14:50.168Z,8.10
2018-06-11T19:17:18.629Z,7.50
2018-06-11T19:19:46.689Z,7.90
2018-06-11T19:22:14.920Z,7.37
2018-06-11T19:24:43.181Z,7.63
2018-06-11T19:27:11.417Z,7.80
2018-06-11T19:29:40.270Z,7.93
2018-06-11T19:32:08.434Z,7.60
2018-06-11T19:34:36.877Z,7.83
2018-06-11T19:37:05.168Z,7.70
2018-06-11T19:39:33.618Z,7.97
2018-06-11T19:42:05.337Z,7.70
2018-06-11T19:44:33.973Z,7.63
2018-06-11T19:47:02.074Z,7.37
2018-06-11T19:49:30.161Z,8.27
2018-06-11T19:51:58.477Z,7.13
2018-06-11T19:54:26.709Z,8.13
2018-06-11T19:56:54.873Z,7.90
2018-06-11T19:59:23.045Z,7.20
2018-06-11T20:01:52.053Z,7.70
2018-06-11T20:04:20.146Z,7.23
2018-06-11T20:06:48.740Z,7.80
2018-06-11T20:09:16.937Z,6.80
2018-06-11T20:11:45.073Z,7.77
2018-06-11T20:14:13.211Z,7.50
2018-06-11T20:16:41.369Z,7.27
2018-06-11T20:19:09.528Z,7.30
2018-06-11T20:21:37.595Z,7.57
2018-06-11T20:24:05.670Z,10.43
2018-06-11T20:26:33.723Z,9.20
2018-06-11T20:29:01.871Z,8.63
2018-06-11T20:31:35.590Z,8.47
2018-06-11T20:34:03.833Z,8.50
2018-06-11T20:36:31.932Z,8.30
2018-06-11T20:39:01.086Z,7.60
2018-06-11T20:41:29.198Z,8.10
2018-06-11T20:43:57.312Z,7.90
2018-06-11T20:46:25.405Z,7.87
2018-06-11T20:48:53.673Z,9.17
2018-06-11T20:51:21.887Z,8.17
2018-06-11T20:53:50.021Z,11.23
2018-06-11T20:56:18.629Z,8.50
2018-06-11T20:58:51.298Z,8.73
2018-06-11T21:01:19.587Z,8.70
2018-06-11T21:03:48.073Z,9.07
2018-06-11T21:06:16.507Z,8.87
2018-06-11T21:08:44.775Z,8.63
2018-06-11T21:11:13.062Z,8.27
2018-06-11T21:13:41.251Z,8.07
2018-06-11T21:16:09.784Z,8.40
2018-06-11T21:18:42.230Z,8.90
2018-06-11T21:21:10.862Z,8.83
2018-06-11T21:23:39.454Z,8.73
2018-06-11T21:26:08.033Z,8.20
2018-06-11T21:28:37.232Z,8.60
2018-06-11T21:31:06.223Z,7.90
2018-06-11T21:33:35.657Z,8.20
2018-06-11T21:36:04.099Z,8.27
2018-06-11T21:38:32.297Z,8.63
2018-06-11T21:41:00.502Z,7.97
2018-06-11T21:43:29.167Z,8.63
2018-06-11T21:45:57.378Z,12.03
2018-06-11T21:48:25.947Z,8.93
2018-06-11T21:50:54.813Z,9.93
2018-06-11T21:53:23.430Z,8.33
2018-06-11T21:55:51.609Z,7.97
2018-06-11T21:58:19.821Z,8.30
2018-06-11T22:00:48.034Z,8.00
2018-06-11T22:03:16.730Z,8.60
2018-06-11T22:05:45.317Z,8.60
2018-06-11T22:08:13.952Z,7.53
2018-06-11T22:10:43.098Z,7.77
2018-06-11T22:13:11.379Z,7.57
2018-06-11T22:15:39.762Z,7.87
2018-06-11T22:18:09.055Z,8.17
2018-06-11T22:20:37.596Z,8.20
2018-06-11T22:23:06.099Z,7.50
2018-06-11T22:25:35.594Z,7.50
2018-06-11T22:28:04.155Z,8.90
2018-06-11T22:30:32.795Z,7.27
2018-06-11T22:33:00.989Z,7.83
2018-06-11T22:35:29.338Z,7.60
2018-06-11T22:37:57.526Z,8.00
2018-06-11T22:40:26.016Z,7.93
2018-06-11T22:42:54.945Z,7.93
2018-06-11T22:45:23.554Z,7.90
2018-06-11T22:47:52.740Z,7.70
2018-06-11T22:50:20.962Z,8.13
2018-06-11T22:52:49.583Z,7.70
2018-06-11T22:55:18.214Z,8.03
2018-06-11T22:57:46.830Z,7.70
2018-06-11T23:00:21.402Z,7.93
2018-06-11T23:02:50.105Z,7.70
2018-06-11T23:05:18.704Z,8.17
2018-06-11T23:07:47.219Z,8.17
2018-06-11T23:10:15.707Z,8.93
2018-06-11T23:12:44.364Z,8.30
2018-06-11T23:15:12.906Z,8.40
2018-06-11T23:46:09.211Z,8.10
2018-06-11T23:48:37.758Z,7.80
2018-06-11T23:51:06.082Z,8.10
2018-06-11T23:53:34.295Z,8.20
2018-06-11T23:56:02.498Z,7.80
2018-06-11T23:58:30.679Z,8.30
